Terminal Aerodrome Forecast
Issued by NWS

Home | Current Version | Previous Version | Text Only | Print | Product List | Glossary On
Versions: 1 2 3 4 5 6 7 8 9 10 11 12 13
000
FTUS44 KBMX 290520
TAFTCL
TAF
KTCL 290520Z 2906/3006 00000KT P6SM SCT080
     FM290800 00000KT 4SM BR SCT025
     FM291300 00000KT 4SM BR VCSH BKN015
     FM291700 14004KT 6SM SHRA VCTS BKN015CB
     FM292300 11006KT P6SM VCTS SCT025CB OVC050=

USA.gov is the U.S. government's official web portal to all federal, state and local government web resources and services.